Time;durP1;ratioP1;P1;durP2;ratioP2;P2;SDS_P1;SDS_P2;PMS_P1;PMS_P2;Temp;Humidity;BMP_temperature;BMP_pressure;BME280_temperature;BME280_humidity;BME280_pressure;Samples;Min_cycle;Max_cycle;Signal;HPM_P1;HPM_P2
2023/04/18 00:02:09;;;;;;;9.67;7.50;;;;;;;7.59;100.00;99796.66;5072330;28;20200;-78
2023/04/18 00:04:38;;;;;;;9.77;7.77;;;;;;;7.63;100.00;99795.63;5078584;28;20314;-79
2023/04/18 00:07:06;;;;;;;10.07;8.17;;;;;;;7.52;100.00;99790.78;5095230;28;20207;-78
2023/04/18 00:09:35;;;;;;;14.80;8.63;;;;;;;7.49;100.00;99788.28;5090230;28;20241;-78
2023/04/18 00:12:04;;;;;;;13.70;9.17;;;;;;;7.43;100.00;99788.53;5085502;28;20710;-78
2023/04/18 00:14:36;;;;;;;11.67;8.93;;;;;;;7.41;100.00;99791.22;5030017;28;20280;-78
2023/04/18 00:17:07;;;;;;;14.07;9.37;;;;;;;7.53;100.00;99789.88;5030324;28;20238;-78
2023/04/18 00:19:42;;;;;;;15.30;8.93;;;;;;;7.52;100.00;99784.66;5033396;28;20237;-78
2023/04/18 00:22:10;;;;;;;15.07;9.97;;;;;;;7.39;100.00;99786.94;5030959;28;20197;-78
2023/04/18 00:24:39;;;;;;;12.47;9.10;;;;;;;7.51;100.00;99780.31;5026574;28;20236;-79
2023/04/18 00:27:07;;;;;;;12.03;8.60;;;;;;;7.39;100.00;99785.16;5029015;28;20231;-78
2023/04/18 00:29:35;;;;;;;14.20;9.63;;;;;;;7.33;100.00;99787.19;5029200;28;20220;-78
2023/04/18 00:32:03;;;;;;;13.03;9.50;;;;;;;7.44;100.00;99779.72;5046350;28;20248;-78
2023/04/18 00:34:31;;;;;;;13.03;9.43;;;;;;;7.37;100.00;99781.75;5032998;28;20202;-78
2023/04/18 00:37:01;;;;;;;13.50;9.90;;;;;;;7.42;100.00;99781.53;5030425;28;20239;-78
2023/04/18 00:39:31;;;;;;;12.27;9.33;;;;;;;7.28;100.00;99779.47;5032705;28;20213;-79
2023/04/18 00:42:00;;;;;;;15.53;9.87;;;;;;;7.32;100.00;99783.69;5028914;28;20249;-78
2023/04/18 00:44:28;;;;;;;14.60;10.27;;;;;;;7.35;100.00;99790.66;5028759;28;20201;-78
2023/04/18 00:46:56;;;;;;;15.23;9.90;;;;;;;7.25;100.00;99786.66;5028473;28;20267;-78
2023/04/18 00:49:25;;;;;;;15.83;9.43;;;;;;;7.15;100.00;99788.81;5032703;28;20197;-78
2023/04/18 00:51:54;;;;;;;13.60;9.40;;;;;;;7.18;100.00;99793.94;5038082;28;20252;-78
2023/04/18 00:54:26;;;;;;;14.83;9.80;;;;;;;7.12;100.00;99779.22;5094956;28;20207;-78
2023/04/18 00:56:54;;;;;;;12.47;9.93;;;;;;;7.20;100.00;99785.97;5091071;28;20199;-78
2023/04/18 00:59:22;;;;;;;17.50;10.50;;;;;;;7.09;100.00;99787.25;5085826;28;20230;-78
2023/04/18 01:01:51;;;;;;;14.33;9.73;;;;;;;7.23;100.00;99781.44;5082104;28;20204;-78
2023/04/18 01:04:19;;;;;;;18.50;10.40;;;;;;;7.25;100.00;99784.03;5086053;28;20375;-78
2023/04/18 01:06:47;;;;;;;14.33;10.03;;;;;;;7.10;100.00;99788.13;5094509;28;20211;-78
2023/04/18 01:09:16;;;;;;;13.53;10.30;;;;;;;7.14;100.00;99784.44;5089266;28;20600;-78
2023/04/18 01:11:46;;;;;;;13.93;9.77;;;;;;;7.07;100.00;99785.63;5085749;28;20253;-79
2023/04/18 01:14:14;;;;;;;12.87;9.47;;;;;;;7.04;100.00;99783.09;5089338;28;20199;-79
2023/04/18 01:16:42;;;;;;;17.87;11.00;;;;;;;7.18;100.00;99783.41;5081363;28;20204;-78
2023/04/18 01:19:11;;;;;;;14.13;10.07;;;;;;;7.22;100.00;99777.09;5088450;28;20261;-78
2023/04/18 01:21:42;;;;;;;14.33;10.20;;;;;;;7.31;100.00;99775.84;5088821;28;20207;-78
2023/04/18 01:24:14;;;;;;;17.37;9.87;;;;;;;7.11;100.00;99779.28;5086492;28;20201;-78
2023/04/18 01:26:46;;;;;;;15.27;10.33;;;;;;;7.04;100.00;99783.94;5093135;28;20199;-79
2023/04/18 01:29:16;;;;;;;13.93;10.47;;;;;;;7.18;100.00;99784.25;5086669;28;20192;-78
2023/04/18 01:31:44;;;;;;;13.07;10.57;;;;;;;7.18;100.00;99773.72;5089887;28;20192;-78
2023/04/18 01:34:13;;;;;;;15.23;11.27;;;;;;;7.12;100.00;99773.97;5087551;28;20192;-78
2023/04/18 01:36:42;;;;;;;13.77;11.13;;;;;;;7.03;100.00;99770.84;5091133;28;20195;-78
2023/04/18 01:39:12;;;;;;;15.67;11.47;;;;;;;7.05;100.00;99771.66;5088437;28;20733;-78
2023/04/18 01:41:42;;;;;;;16.77;11.03;;;;;;;7.13;100.00;99766.91;5088677;28;20253;-78
2023/04/18 01:44:10;;;;;;;16.83;11.83;;;;;;;7.00;100.00;99763.06;5091136;28;20191;-78
2023/04/18 01:46:39;;;;;;;18.23;12.10;;;;;;;6.98;100.00;99760.50;5085806;28;20200;-78
2023/04/18 01:49:09;;;;;;;18.10;12.03;;;;;;;7.09;100.00;99767.97;5087226;28;20206;-78
2023/04/18 01:51:38;;;;;;;21.03;13.23;;;;;;;7.03;100.00;99760.31;5090948;28;20195;-78
2023/04/18 01:54:06;;;;;;;18.63;12.87;;;;;;;7.01;100.00;99768.28;5085837;28;20200;-78
2023/04/18 01:56:36;;;;;;;22.07;13.97;;;;;;;6.84;100.00;99765.44;5085703;28;20187;-78
2023/04/18 01:59:05;;;;;;;19.23;12.73;;;;;;;7.04;100.00;99765.50;5093174;28;20212;-78
2023/04/18 02:01:33;;;;;;;19.90;14.10;;;;;;;7.01;100.00;99757.72;5085317;28;20196;-78
2023/04/18 02:04:01;;;;;;;18.83;13.60;;;;;;;7.00;100.00;99758.66;5088930;28;20771;-79
2023/04/18 02:06:31;;;;;;;20.00;13.87;;;;;;;6.78;100.00;99761.28;5086270;28;20200;-78
2023/04/18 02:08:59;;;;;;;20.17;14.93;;;;;;;6.91;100.00;99758.16;5087267;28;20192;-78
2023/04/18 02:11:28;;;;;;;18.60;14.20;;;;;;;6.99;100.00;99762.22;5084006;28;20233;-78
2023/04/18 02:13:58;;;;;;;19.00;14.07;;;;;;;6.80;100.00;99766.47;5040829;28;20249;-78
2023/04/18 02:16:26;;;;;;;19.17;14.60;;;;;;;6.84;100.00;99768.91;5087120;28;20203;-78
2023/04/18 02:18:55;;;;;;;19.97;14.33;;;;;;;6.86;100.00;99768.88;5087662;28;20272;-78
2023/04/18 02:21:23;;;;;;;18.97;14.90;;;;;;;6.80;100.00;99767.34;5090585;28;20195;-78
2023/04/18 02:23:52;;;;;;;23.00;14.40;;;;;;;6.92;100.00;99763.38;5085106;28;20204;-79
2023/04/18 02:26:20;;;;;;;22.90;15.03;;;;;;;6.73;100.00;99775.53;5091075;28;20253;-78
2023/04/18 02:28:48;;;;;;;22.37;14.37;;;;;;;6.57;100.00;99770.88;5094070;28;20646;-78
2023/04/18 02:31:18;;;;;;;20.20;14.10;;;;;;;6.69;100.00;99772.16;5089556;28;20190;-78
2023/04/18 02:33:47;;;;;;;22.37;14.67;;;;;;;6.68;100.00;99769.59;5085537;28;20196;-78
2023/04/18 02:36:15;;;;;;;19.80;14.97;;;;;;;6.59;100.00;99762.91;4981847;28;20203;-78
2023/04/18 02:38:44;;;;;;;20.20;14.13;;;;;;;6.60;100.00;99769.88;4986311;28;20199;-78
2023/04/18 02:41:16;;;;;;;21.03;14.80;;;;;;;6.49;100.00;99766.81;4991584;28;20675;-78
2023/04/18 02:43:44;;;;;;;18.63;14.83;;;;;;;6.52;100.00;99767.53;4989996;28;20203;-78
2023/04/18 02:46:12;;;;;;;21.20;14.50;;;;;;;6.38;100.00;99764.56;4991591;28;20323;-78
2023/04/18 02:48:42;;;;;;;20.90;14.17;;;;;;;6.49;100.00;99774.69;4991382;28;20202;-78
2023/04/18 02:51:10;;;;;;;20.20;13.57;;;;;;;6.40;100.00;99775.03;4984258;28;20199;-79
2023/04/18 02:53:39;;;;;;;24.83;15.30;;;;;;;6.35;100.00;99767.28;5002480;28;20245;-78
2023/04/18 02:56:08;;;;;;;20.23;14.23;;;;;;;6.45;100.00;99771.31;5092879;28;20203;-78
2023/04/18 02:58:36;;;;;;;22.30;14.10;;;;;;;6.58;100.00;99776.97;5085492;28;20268;-78
2023/04/18 03:01:04;;;;;;;23.67;14.53;;;;;;;6.54;100.00;99770.09;5092545;28;20728;-78
2023/04/18 03:03:33;;;;;;;20.13;14.97;;;;;;;6.49;100.00;99779.97;5086684;28;20263;-78
2023/04/18 03:06:04;;;;;;;20.50;14.60;;;;;;;6.56;100.00;99773.53;5030257;28;20194;-78
2023/04/18 03:08:32;;;;;;;21.93;15.27;;;;;;;6.44;100.00;99766.09;5030529;28;20351;-78
2023/04/18 03:11:00;;;;;;;23.40;15.37;;;;;;;6.34;100.00;99770.84;5026871;28;20209;-78
2023/04/18 03:13:30;;;;;;;21.03;14.93;;;;;;;6.49;100.00;99774.69;5021773;28;20665;-79
2023/04/18 03:15:59;;;;;;;20.37;14.73;;;;;;;6.57;100.00;99765.59;5022339;28;20209;-79
2023/04/18 03:18:28;;;;;;;22.83;15.80;;;;;;;6.47;100.00;99758.97;5024965;28;20197;-78
2023/04/18 03:20:56;;;;;;;21.33;15.37;;;;;;;6.60;100.00;99767.25;5027562;28;20263;-79
2023/04/18 03:23:26;;;;;;;21.67;15.93;;;;;;;6.55;100.00;99761.28;5039710;28;20195;-78
2023/04/18 03:25:54;;;;;;;25.67;16.93;;;;;;;6.60;100.00;99764.63;5087843;28;20534;-78
2023/04/18 03:28:24;;;;;;;20.10;15.63;;;;;;;6.46;100.00;99764.25;5091329;28;20294;-80
2023/04/18 03:30:52;;;;;;;21.07;15.77;;;;;;;6.55;100.00;99767.41;5085969;28;20615;-79
2023/04/18 03:33:21;;;;;;;21.17;15.87;;;;;;;6.48;100.00;99771.22;5089656;28;20282;-79
2023/04/18 03:35:49;;;;;;;23.63;15.23;;;;;;;6.46;100.00;99774.78;5083204;28;20696;-79
2023/04/18 03:38:17;;;;;;;23.30;15.03;;;;;;;6.53;100.00;99771.03;5087943;28;20220;-79
2023/04/18 03:40:47;;;;;;;24.07;15.97;;;;;;;6.53;100.00;99776.28;5084605;28;20216;-78
2023/04/18 03:43:15;;;;;;;18.70;14.63;;;;;;;6.63;100.00;99774.16;5095141;28;20188;-78
2023/04/18 03:45:46;;;;;;;22.73;15.80;;;;;;;6.45;100.00;99773.06;5093283;28;20237;-78
2023/04/18 03:48:14;;;;;;;23.57;14.53;;;;;;;6.58;100.00;99777.84;5088817;28;20279;-78
2023/04/18 03:50:43;;;;;;;20.30;14.73;;;;;;;6.57;100.00;99772.63;5093341;28;20191;-78
2023/04/18 03:53:11;;;;;;;18.00;13.70;;;;;;;6.62;100.00;99775.94;5093581;28;20199;-78
2023/04/18 03:55:39;;;;;;;18.87;13.83;;;;;;;6.62;100.00;99777.72;5092040;28;20195;-78
2023/04/18 03:58:09;;;;;;;18.37;14.10;;;;;;;6.69;100.00;99780.06;5090179;28;20253;-78
2023/04/18 04:00:37;;;;;;;16.63;12.83;;;;;;;6.71;100.00;99780.00;5093465;28;20215;-79
2023/04/18 04:03:06;;;;;;;17.80;12.17;;;;;;;6.76;100.00;99776.28;5095840;28;20260;-79
2023/04/18 04:05:34;;;;;;;20.00;13.10;;;;;;;6.69;100.00;99773.94;5092174;28;20228;-78
2023/04/18 04:08:03;;;;;;;14.47;12.43;;;;;;;6.50;100.00;99777.28;5092066;28;20274;-78
2023/04/18 04:10:31;;;;;;;16.87;12.07;;;;;;;6.55;100.00;99775.31;5090190;28;20192;-77
2023/04/18 04:13:00;;;;;;;18.27;12.00;;;;;;;6.58;100.00;99769.94;5094410;28;20195;-78
2023/04/18 04:15:30;;;;;;;16.87;11.03;;;;;;;6.54;100.00;99773.59;5087994;28;20200;-78
2023/04/18 04:17:59;;;;;;;15.77;11.23;;;;;;;6.66;100.00;99772.28;5090385;28;20200;-77
2023/04/18 04:20:27;;;;;;;16.50;11.80;;;;;;;6.53;100.00;99774.50;5088361;28;20288;-78
2023/04/18 04:22:58;;;;;;;17.10;12.27;;;;;;;6.44;100.00;99769.59;5091889;28;20245;-78
2023/04/18 04:25:28;;;;;;;16.60;11.83;;;;;;;6.54;100.00;99759.56;5095377;28;20206;-78
2023/04/18 04:28:00;;;;;;;14.13;10.47;;;;;;;6.63;100.00;99769.75;5086927;28;20218;-77
2023/04/18 04:30:28;;;;;;;15.10;10.40;;;;;;;6.59;100.00;99770.81;5090921;28;20191;-77
2023/04/18 04:32:58;;;;;;;17.13;11.17;;;;;;;6.54;100.00;99773.59;5095478;28;20247;-78
2023/04/18 04:35:27;;;;;;;12.90;9.93;;;;;;;6.64;100.00;99770.63;5085448;28;20716;-77
2023/04/18 04:37:55;;;;;;;14.13;10.50;;;;;;;6.60;100.00;99770.75;5089326;28;20195;-78
2023/04/18 04:40:24;;;;;;;13.20;9.80;;;;;;;6.67;100.00;99768.75;5095147;28;20237;-78
2023/04/18 04:42:53;;;;;;;12.17;9.27;;;;;;;6.60;100.00;99772.50;5093984;28;20196;-78
2023/04/18 04:45:22;;;;;;;13.23;9.37;;;;;;;6.66;100.00;99774.94;5088670;28;20221;-78
2023/04/18 04:47:50;;;;;;;11.27;8.70;;;;;;;6.72;100.00;99776.44;5095234;28;20190;-78
2023/04/18 04:50:21;;;;;;;11.77;9.20;;;;;;;6.78;100.00;99782.34;5084944;28;20321;-78
2023/04/18 04:52:49;;;;;;;11.07;9.33;;;;;;;6.80;100.00;99782.28;5088496;28;20184;-78
2023/04/18 04:55:19;;;;;;;12.30;8.43;;;;;;;6.74;100.00;99787.78;5094885;28;20184;-78
2023/04/18 04:57:48;;;;;;;11.47;8.87;;;;;;;6.73;100.00;99780.78;5042250;28;20198;-78
2023/04/18 05:00:19;;;;;;;12.10;8.77;;;;;;;6.85;100.00;99783.84;5059314;28;20615;-78
2023/04/18 05:02:48;;;;;;;11.27;8.50;;;;;;;6.79;100.00;99788.47;5094826;28;20199;-78
2023/04/18 05:05:17;;;;;;;10.93;8.80;;;;;;;6.94;100.00;99790.50;5083475;28;20255;-78
2023/04/18 05:07:46;;;;;;;10.00;7.87;;;;;;;6.92;100.00;99789.69;5090667;28;20249;-78
2023/04/18 05:10:15;;;;;;;9.60;7.50;;;;;;;7.01;100.00;99791.97;5087077;28;20243;-79
2023/04/18 05:12:43;;;;;;;12.07;8.43;;;;;;;7.03;100.00;99794.53;5089493;28;20198;-78
2023/04/18 05:15:14;;;;;;;10.23;7.93;;;;;;;6.96;100.00;99788.69;5090618;28;20196;-78
2023/04/18 05:17:42;;;;;;;10.33;7.27;;;;;;;7.02;100.00;99791.06;5091616;28;20249;-78
2023/04/18 05:20:11;;;;;;;9.57;7.00;;;;;;;7.11;100.00;99803.00;5091484;28;20191;-79
2023/04/18 05:22:40;;;;;;;7.97;6.57;;;;;;;7.15;100.00;99796.72;5087057;28;20378;-78
2023/04/18 05:25:11;;;;;;;8.50;6.00;;;;;;;7.26;100.00;99799.78;5086472;28;20638;-79
2023/04/18 05:27:39;;;;;;;8.23;6.37;;;;;;;7.34;100.00;99799.47;5087640;28;20200;-78
2023/04/18 05:30:10;;;;;;;8.30;6.73;;;;;;;7.50;100.00;99794.41;5089757;28;20192;-78
2023/04/18 05:32:38;;;;;;;8.70;6.23;;;;;;;7.45;100.00;99805.16;5091729;28;20202;-78
2023/04/18 05:35:08;;;;;;;7.90;6.17;;;;;;;7.44;100.00;99800.81;5089452;28;20295;-79
2023/04/18 05:37:36;;;;;;;7.37;6.30;;;;;;;7.52;100.00;99803.09;5089437;28;20713;-78
2023/04/18 05:40:05;;;;;;;9.47;6.10;;;;;;;7.44;100.00;99800.81;5088399;28;20192;-78
2023/04/18 05:42:35;;;;;;;7.10;5.93;;;;;;;7.50;100.00;99802.31;5084485;28;20203;-78
2023/04/18 05:45:03;;;;;;;6.77;5.60;;;;;;;7.50;100.00;99799.69;5094043;28;20245;-78
2023/04/18 05:47:32;;;;;;;7.50;6.00;;;;;;;7.46;100.00;99801.59;5087395;28;20196;-78
2023/04/18 05:50:00;;;;;;;7.30;6.07;;;;;;;7.59;100.00;99804.56;5090232;28;20245;-78
2023/04/18 05:52:29;;;;;;;8.67;6.53;;;;;;;7.57;100.00;99806.44;5088587;28;20665;-78
2023/04/18 05:54:57;;;;;;;9.17;7.30;;;;;;;7.42;100.00;99808.75;5086928;28;20195;-78
2023/04/18 05:57:25;;;;;;;8.50;6.67;;;;;;;7.50;100.00;99810.22;5088841;28;20229;-79
2023/04/18 05:59:55;;;;;;;8.40;7.03;;;;;;;7.57;100.00;99811.69;5090942;28;20184;-78
2023/04/18 06:02:24;;;;;;;8.90;6.97;;;;;;;7.68;100.00;99817.38;5091827;28;20223;-78
2023/04/18 06:04:53;;;;;;;9.40;7.37;;;;;;;7.71;100.00;99819.88;5092425;28;20224;-78
2023/04/18 06:07:23;;;;;;;9.17;7.37;;;;;;;7.85;100.00;99819.31;5091683;28;20265;-78
2023/04/18 06:09:52;;;;;;;9.70;7.70;;;;;;;7.90;100.00;99818.19;5091027;28;20274;-78
2023/04/18 06:12:20;;;;;;;10.00;7.90;;;;;;;7.87;100.00;99830.66;5090664;28;20196;-79
2023/04/18 06:14:50;;;;;;;9.93;7.97;;;;;;;8.08;100.00;99826.25;5091808;28;20688;-78
2023/04/18 06:17:20;;;;;;;11.40;8.90;;;;;;;7.98;100.00;99837.19;5093676;28;20200;-78
2023/04/18 06:19:49;;;;;;;11.20;8.57;;;;;;;8.12;100.00;99827.84;5089334;28;20223;-79
2023/04/18 06:22:17;;;;;;;11.30;9.47;;;;;;;8.10;100.00;99827.88;5093352;28;20268;-78
2023/04/18 06:24:45;;;;;;;12.00;9.67;;;;;;;8.04;100.00;99828.16;5092243;28;20225;-78
2023/04/18 06:27:13;;;;;;;11.93;9.70;;;;;;;8.12;100.00;99835.75;5095733;28;20225;-78
2023/04/18 06:29:57;;;;;;;13.93;9.57;;;;;;;8.46;100.00;99843.06;5107885;28;20195;-78
2023/04/18 06:32:26;;;;;;;11.50;9.50;;;;;;;8.54;100.00;99843.59;5106104;28;20198;-78
2023/04/18 06:34:54;;;;;;;14.50;9.90;;;;;;;8.77;100.00;99851.31;5091895;28;20204;-79
2023/04/18 06:37:24;;;;;;;15.20;10.33;;;;;;;8.87;100.00;99839.41;5097136;28;20198;-79
2023/04/18 06:39:52;;;;;;;12.90;10.47;;;;;;;9.11;100.00;99845.34;5099472;28;20192;-79
2023/04/18 06:42:21;;;;;;;13.57;10.00;;;;;;;9.09;100.00;99846.38;5095098;28;20234;-78
2023/04/18 06:44:50;;;;;;;14.37;10.07;;;;;;;9.37;100.00;99846.78;5089511;28;20246;-79
2023/04/18 06:47:18;;;;;;;13.47;10.37;;;;;;;9.28;100.00;99851.66;5096314;28;20195;-79
2023/04/18 06:49:48;;;;;;;13.77;10.43;;;;;;;9.41;100.00;99847.47;5095694;28;20199;-78
2023/04/18 06:52:16;;;;;;;14.43;10.93;;;;;;;9.41;100.00;99843.03;5096151;28;20191;-78
2023/04/18 06:54:45;;;;;;;13.90;10.80;;;;;;;9.54;100.00;99851.22;5098931;28;20658;-78
2023/04/18 06:57:13;;;;;;;15.57;11.40;;;;;;;9.25;100.00;99846.47;5092780;28;20188;-78
2023/04/18 06:59:41;;;;;;;15.40;11.53;;;;;;;9.32;100.00;99850.56;5095859;28;20192;-78
2023/04/18 07:02:12;;;;;;;15.63;11.50;;;;;;;9.22;100.00;99838.72;5099204;28;20219;-78
2023/04/18 07:04:40;;;;;;;16.07;11.97;;;;;;;9.18;100.00;99828.28;5099220;28;20228;-78
2023/04/18 07:07:10;;;;;;;17.33;12.43;;;;;;;9.03;100.00;99830.78;5094913;28;20291;-78
2023/04/18 07:09:38;;;;;;;15.63;11.90;;;;;;;9.10;100.00;99841.00;5093805;28;20190;-79
2023/04/18 07:12:07;;;;;;;17.13;12.63;;;;;;;8.99;100.00;99843.31;5094502;28;20195;-78
2023/04/18 07:14:36;;;;;;;17.07;13.20;;;;;;;9.10;100.00;99848.94;5052264;28;20262;-78
2023/04/18 07:17:04;;;;;;;16.50;12.57;;;;;;;9.11;100.00;99850.66;5052849;28;20244;-79
2023/04/18 07:19:32;;;;;;;19.63;13.40;;;;;;;9.20;100.00;99853.78;5054467;28;20228;-78
2023/04/18 07:22:01;;;;;;;18.93;13.30;;;;;;;9.23;100.00;99854.50;5051704;28;20216;-78
2023/04/18 07:24:30;;;;;;;16.77;11.97;;;;;;;9.16;100.00;99861.84;5054047;28;20201;-78
2023/04/18 07:27:00;;;;;;;15.73;11.20;;;;;;;9.23;100.00;99861.56;5053017;28;20197;-78
2023/04/18 07:29:28;;;;;;;16.17;11.60;;;;;;;9.26;100.00;99866.69;5054217;28;20201;-79
2023/04/18 07:31:56;;;;;;;16.77;11.43;;;;;;;9.18;100.00;99862.66;5055866;28;20250;-79
2023/04/18 07:34:25;;;;;;;16.00;11.30;;;;;;;9.23;100.00;99862.41;5094500;28;20654;-79
2023/04/18 07:36:54;;;;;;;16.17;11.77;;;;;;;9.18;100.00;99859.16;5095475;28;20207;-78
2023/04/18 07:39:22;;;;;;;13.93;10.10;;;;;;;9.26;100.00;99864.91;5088140;28;20208;-79
2023/04/18 07:41:52;;;;;;;15.27;10.63;;;;;;;9.23;100.00;99858.91;5094075;28;20228;-78
2023/04/18 07:44:24;;;;;;;18.07;11.20;;;;;;;9.47;100.00;99865.69;5087553;28;20207;-78
2023/04/18 07:46:52;;;;;;;16.13;10.63;;;;;;;9.43;100.00;99867.63;5095331;28;20191;-78
2023/04/18 07:49:20;;;;;;;15.03;10.57;;;;;;;9.49;100.00;99869.13;5094658;28;20199;-79
2023/04/18 07:51:49;;;;;;;13.20;10.23;;;;;;;9.64;100.00;99862.22;5098731;28;20627;-79
2023/04/18 07:54:17;;;;;;;13.47;9.73;;;;;;;9.43;100.00;99870.25;5088985;28;20611;-79
2023/04/18 07:56:45;;;;;;;15.03;9.67;;;;;;;9.55;100.00;99871.44;5093134;28;20200;-78
2023/04/18 07:59:15;;;;;;;12.37;8.63;;;;;;;9.80;100.00;99862.31;5091601;28;20207;-78
2023/04/18 08:01:44;;;;;;;10.20;8.10;;;;;;;9.76;100.00;99864.28;5091732;28;20188;-79
2023/04/18 08:04:13;;;;;;;10.73;7.67;;;;;;;9.85;100.00;99861.19;5090231;28;20227;-78
2023/04/18 08:06:42;;;;;;;9.97;7.90;;;;;;;9.81;100.00;99862.25;5093563;28;20192;-78
2023/04/18 08:09:11;;;;;;;9.17;7.10;;;;;;;9.92;100.00;99859.06;5092945;28;20237;-79
2023/04/18 08:11:42;;;;;;;9.37;6.63;;;;;;;10.05;100.00;99873.41;5091491;28;20710;-79
2023/04/18 08:14:10;;;;;;;9.67;6.70;;;;;;;10.11;100.00;99861.63;5093030;28;20200;-78
2023/04/18 08:16:40;;;;;;;10.47;6.80;;;;;;;10.53;100.00;99855.97;5089273;28;20285;-79
2023/04/18 08:19:08;;;;;;;8.53;6.23;;;;;;;10.78;100.00;99869.63;5093261;28;20203;-79
2023/04/18 08:21:38;;;;;;;8.13;5.93;;;;;;;10.89;100.00;99869.03;5091534;28;20191;-79
2023/04/18 08:24:06;;;;;;;7.93;5.70;;;;;;;10.68;100.00;99860.44;5087353;28;20191;-78
2023/04/18 08:26:35;;;;;;;9.97;6.23;;;;;;;10.81;100.00;99860.66;5088814;28;20223;-79
2023/04/18 08:29:03;;;;;;;8.43;6.53;;;;;;;10.86;100.00;99863.91;5098872;28;20192;-78
2023/04/18 08:31:31;;;;;;;17.27;13.33;;;;;;;10.82;100.00;99857.06;5093703;28;20192;-78
2023/04/18 08:34:01;;;;;;;9.57;8.53;;;;;;;10.86;100.00;99862.13;5091822;28;20195;-78
2023/04/18 08:36:32;;;;;;;8.67;5.93;;;;;;;10.85;100.00;99865.72;5096048;28;20203;-78
2023/04/18 08:39:00;;;;;;;7.00;5.57;;;;;;;10.89;100.00;99866.38;5098749;28;20226;-78
2023/04/18 08:41:34;;;;;;;13.13;11.57;;;;;;;11.15;100.00;99857.88;5097520;28;20196;-78
2023/04/18 08:44:03;;;;;;;6.87;5.53;;;;;;;11.46;100.00;99864.13;5094616;28;20219;-79
2023/04/18 08:46:34;;;;;;;6.07;5.33;;;;;;;11.44;100.00;99858.06;5096272;28;20192;-79
2023/04/18 08:49:05;;;;;;;16.27;12.43;;;;;;;11.78;100.00;99859.66;5094117;28;20256;-79
2023/04/18 08:51:34;;;;;;;8.40;5.93;;;;;;;12.11;100.00;99854.19;5099518;28;20196;-79
2023/04/18 08:54:05;;;;;;;8.80;6.00;;;;;;;12.20;100.00;99852.78;5099084;28;20196;-79
2023/04/18 08:56:36;;;;;;;6.47;5.77;;;;;;;12.48;100.00;99849.34;5097602;28;20206;-78
2023/04/18 08:59:04;;;;;;;6.17;5.07;;;;;;;12.48;100.00;99849.34;5098278;28;20203;-78
2023/04/18 09:01:55;;;;;;;4.83;4.33;;;;;;;12.82;100.00;99845.44;5091823;28;20278;-79
2023/04/18 09:04:37;;;;;;;5.23;4.33;;;;;;;12.92;100.00;99848.38;5098018;28;20247;-79
2023/04/18 09:07:07;;;;;;;5.47;4.50;;;;;;;12.72;100.00;99860.25;5095399;28;20279;-79
2023/04/18 09:09:49;;;;;;;5.33;4.40;;;;;;;12.93;100.00;99855.41;5098509;28;20241;-79
2023/04/18 09:12:21;;;;;;;6.00;4.70;;;;;;;12.95;100.00;99859.72;5093738;28;20187;-79
2023/04/18 09:14:51;;;;;;;6.90;5.10;;;;;;;12.68;100.00;99862.25;5097788;28;20199;-79
2023/04/18 09:17:32;;;;;;;5.53;4.40;;;;;;;13.11;100.00;99855.09;5094957;28;20208;-78
2023/04/18 09:20:09;;;;;;;5.47;4.57;;;;;;;12.86;100.00;99862.94;5097359;28;20225;-79
2023/04/18 09:22:47;;;;;;;5.60;4.60;;;;;;;13.05;100.00;99860.84;5089478;28;20211;-79
2023/04/18 09:25:26;;;;;;;5.53;4.63;;;;;;;12.66;100.00;99876.59;5092257;28;20199;-79
2023/04/18 09:27:56;;;;;;;5.97;4.57;;;;;;;12.95;100.00;99867.69;5051457;28;20196;-79
2023/04/18 09:30:32;;;;;;;4.63;4.00;;;;;;;12.68;100.00;99870.25;5048195;28;20190;-79
2023/04/18 09:33:01;;;;;;;5.80;4.67;;;;;;;12.36;100.00;99866.88;5049697;28;20200;-79
2023/04/18 09:35:34;;;;;;;5.13;4.47;;;;;;;12.41;100.00;99867.44;5049741;28;20201;-80
2023/04/18 09:38:02;;;;;;;6.77;4.93;;;;;;;12.35;100.00;99870.44;5045396;28;20197;-78
2023/04/18 09:40:32;;;;;;;5.80;4.70;;;;;;;12.42;100.00;99877.13;5052153;28;20423;-79
2023/04/18 09:43:00;;;;;;;6.53;4.70;;;;;;;12.58;100.00;99869.09;5047184;28;20212;-79
2023/04/18 09:45:28;;;;;;;5.17;4.67;;;;;;;12.52;100.00;99869.44;5055061;28;20188;-79
2023/04/18 09:47:57;;;;;;;5.70;4.67;;;;;;;12.46;100.00;99875.16;5089463;28;20646;-79
2023/04/18 09:50:26;;;;;;;5.37;4.87;;;;;;;12.57;100.00;99876.22;5086735;28;20666;-79
2023/04/18 09:52:58;;;;;;;6.97;4.73;;;;;;;12.92;100.00;99874.97;5094130;28;20191;-79
2023/04/18 09:55:28;;;;;;;6.43;5.00;;;;;;;13.08;100.00;99868.63;5090080;28;20203;-79
2023/04/18 09:57:59;;;;;;;7.87;5.27;;;;;;;13.44;100.00;99876.09;5092896;28;20714;-79
2023/04/18 10:00:30;;;;;;;6.53;5.10;;;;;;;13.66;100.00;99869.38;5087755;28;20225;-79
2023/04/18 10:02:59;;;;;;;6.37;4.80;;;;;;;13.31;100.00;99871.66;5082818;28;20215;-79
2023/04/18 10:05:31;;;;;;;6.73;5.00;;;;;;;13.15;100.00;99877.91;5093494;28;20216;-79
2023/04/18 10:08:01;;;;;;;7.47;6.07;;;;;;;13.27;100.00;99868.34;5091002;28;20234;-79
2023/04/18 10:10:29;;;;;;;6.33;5.27;;;;;;;13.94;100.00;99874.59;5090688;28;20195;-79
2023/04/18 10:13:00;;;;;;;5.70;4.93;;;;;;;14.11;100.00;99873.47;5088966;28;20199;-79
2023/04/18 10:15:30;;;;;;;5.77;4.90;;;;;;;14.17;100.00;99870.38;5094982;28;20708;-79
2023/04/18 10:18:00;;;;;;;6.07;5.33;;;;;;;13.70;100.00;99873.53;5094220;28;20220;-80
2023/04/18 10:20:35;;;;;;;7.83;5.60;;;;;;;13.40;100.00;99879.03;5091475;28;20207;-80
2023/04/18 10:23:38;;;;;;;7.30;5.70;;;;;;;13.57;100.00;99877.97;5092381;28;20241;-80
2023/04/18 10:26:08;;;;;;;6.93;5.73;;;;;;;13.89;100.00;99874.03;5097687;28;20413;-79
2023/04/18 10:28:55;;;;;;;6.93;5.80;;;;;;;13.83;100.00;99865.63;5085048;28;20211;-79
2023/04/18 10:31:25;;;;;;;6.70;5.87;;;;;;;13.85;100.00;99866.38;5088521;28;20269;-79
2023/04/18 10:33:55;;;;;;;7.80;7.00;;;;;;;13.72;100.00;99874.31;5044465;28;20201;-79
2023/04/18 10:37:04;;;;;;;8.20;5.70;;;;;;;14.04;100.00;99870.38;5092847;28;20188;-79
2023/04/18 10:39:47;;;;;;;7.17;5.97;;;;;;;14.64;100.00;99868.13;5094254;28;20206;-79
2023/04/18 10:42:16;;;;;;;8.13;6.00;;;;;;;14.58;100.00;99866.75;5088972;28;20187;-79
2023/04/18 10:45:04;;;;;;;6.03;5.27;;;;;;;14.87;100.00;99870.06;5086690;28;20215;-79
2023/04/18 10:47:32;;;;;;;6.50;5.80;;;;;;;14.91;100.00;99876.03;5089940;28;20199;-79
2023/04/18 10:50:03;;;;;;;6.00;5.40;;;;;;;15.05;100.00;99875.88;5092610;28;20282;-80
2023/04/18 10:52:34;;;;;;;6.47;5.80;;;;;;;14.65;100.00;99869.84;5095277;28;20206;-79
2023/04/18 10:55:24;;;;;;;7.50;6.10;;;;;;;14.56;100.00;99864.19;5087157;28;20226;-79
2023/04/18 10:57:55;;;;;;;7.00;5.77;;;;;;;14.63;100.00;99869.94;5096653;28;20200;-79
2023/04/18 11:00:23;;;;;;;7.23;5.97;;;;;;;14.74;100.00;99878.06;5089128;28;20207;-79
2023/04/18 11:02:54;;;;;;;6.87;5.57;;;;;;;14.33;100.00;99873.72;5097111;28;20204;-79
2023/04/18 11:05:25;;;;;;;7.23;5.60;;;;;;;14.12;100.00;99863.69;5086415;28;20234;-79
2023/04/18 11:07:54;;;;;;;7.73;5.57;;;;;;;14.29;100.00;99863.41;5091002;28;20200;-79
2023/04/18 11:10:25;;;;;;;6.33;5.70;;;;;;;14.10;100.00;99855.78;5087445;28;20191;-79
2023/04/18 11:12:55;;;;;;;6.90;6.03;;;;;;;14.91;100.00;99857.34;5091992;28;20213;-79
2023/04/18 11:15:25;;;;;;;7.77;6.40;;;;;;;15.20;100.00;99856.13;5088187;28;20196;-79
2023/04/18 11:17:57;;;;;;;7.27;5.63;;;;;;;15.05;100.00;99855.41;5089557;28;20202;-79
2023/04/18 11:20:26;;;;;;;6.63;5.90;;;;;;;15.07;100.00;99853.50;5081728;28;20230;-80
2023/04/18 11:22:56;;;;;;;8.23;6.77;;;;;;;15.01;100.00;99853.91;5091124;28;20199;-78
2023/04/18 11:25:28;;;;;;;7.57;6.63;;;;;;;15.06;100.00;99851.78;5089820;28;20215;-79
2023/04/18 11:27:59;;;;;;;7.97;7.00;;;;;;;15.12;100.00;99858.50;5085324;28;20195;-79
2023/04/18 11:30:30;;;;;;;8.43;6.50;;;;;;;14.56;100.00;99858.00;5080351;28;20243;-79
2023/04/18 11:32:58;;;;;;;8.77;7.40;;;;;;;14.89;100.00;99861.00;5085913;28;20219;-80
2023/04/18 11:35:27;;;;;;;9.13;7.63;;;;;;;14.69;100.00;99858.03;5083883;28;20350;-79